Time;durP1;ratioP1;P1;durP2;ratioP2;P2;SDS_P1;SDS_P2;PMS_P1;PMS_P2;Temp;Humidity;BMP_temperature;BMP_pressure;BME280_temperature;BME280_humidity;BME280_pressure;Samples;Min_cycle;Max_cycle;Signal;HPM_P1;HPM_P2
2020/12/06 00:01:13;;;;;;;1.60;1.40;;;3.60;98.20;;;;;;5064098;28;20958;-72
2020/12/06 00:03:41;;;;;;;1.60;1.40;;;3.60;98.20;;;;;;5061339;28;20470;-73
2020/12/06 00:06:07;;;;;;;1.60;1.40;;;3.60;98.20;;;;;;5060011;28;20558;-72
2020/12/06 00:08:34;;;;;;;1.70;1.60;;;3.60;98.20;;;;;;5059847;28;20458;-71
2020/12/06 00:11:00;;;;;;;1.60;1.40;;;3.60;98.20;;;;;;5059446;28;20479;-73
2020/12/06 00:13:27;;;;;;;1.60;1.40;;;3.60;98.20;;;;;;5063297;28;20466;-74
2020/12/06 00:15:53;;;;;;;3.87;3.57;;;3.50;98.20;;;;;;5069821;28;20481;-74
2020/12/06 00:18:19;;;;;;;1.67;1.50;;;3.50;98.20;;;;;;5062742;28;20498;-73
2020/12/06 00:20:47;;;;;;;1.60;1.50;;;3.50;98.20;;;;;;5065634;28;20488;-73
2020/12/06 00:23:20;;;;;;;1.67;1.50;;;3.50;98.20;;;;;;5067958;28;20513;-74
2020/12/06 00:25:48;;;;;;;1.60;1.40;;;3.40;98.20;;;;;;5063119;28;20496;-74
2020/12/06 00:28:14;;;;;;;1.80;1.70;;;3.40;98.20;;;;;;5067307;28;20527;-74
2020/12/06 00:30:41;;;;;;;1.67;1.50;;;3.30;98.20;;;;;;5067114;28;20462;-73
2020/12/06 00:33:07;;;;;;;1.63;1.40;;;3.30;98.20;;;;;;5067362;28;20487;-74
2020/12/06 00:35:33;;;;;;;1.67;1.50;;;3.20;98.20;;;;;;5063157;28;21206;-74
2020/12/06 00:38:01;;;;;;;1.67;1.50;;;3.20;98.20;;;;;;5066442;28;20492;-74
2020/12/06 00:40:27;;;;;;;1.60;1.40;;;3.20;98.20;;;;;;5067430;28;20496;-74
2020/12/06 00:42:54;;;;;;;1.67;1.47;;;3.10;98.20;;;;;;5066921;28;21278;-73
2020/12/06 00:45:20;;;;;;;1.60;1.40;;;3.10;98.20;;;;;;5063349;28;20514;-74
2020/12/06 00:47:46;;;;;;;1.67;1.50;;;3.10;98.20;;;;;;5066629;28;20981;-74
2020/12/06 00:50:13;;;;;;;1.70;1.50;;;3.10;98.20;;;;;;5070406;28;20491;-72
2020/12/06 00:52:39;;;;;;;1.67;1.50;;;3.10;98.20;;;;;;5076563;28;20461;-74
2020/12/06 00:55:06;;;;;;;1.70;1.53;;;3.10;98.20;;;;;;5073590;28;20473;-73
2020/12/06 00:57:33;;;;;;;1.60;1.40;;;3.10;98.20;;;;;;5072394;28;20519;-72
2020/12/06 00:59:59;;;;;;;1.63;1.50;;;3.10;98.20;;;;;;5076183;28;20454;-73
2020/12/06 01:02:26;;;;;;;1.67;1.40;;;3.10;98.20;;;;;;5071632;28;20481;-74
2020/12/06 01:04:52;;;;;;;1.70;1.40;;;3.10;98.20;;;;;;5070075;28;20580;-73
2020/12/06 01:07:19;;;;;;;1.63;1.40;;;3.10;98.20;;;;;;5073723;28;20474;-74
2020/12/06 01:09:45;;;;;;;2.10;1.60;;;3.10;98.20;;;;;;5075746;28;21207;-73
2020/12/06 01:12:12;;;;;;;1.70;1.50;;;3.10;98.20;;;;;;5070858;28;20500;-72
2020/12/06 01:14:39;;;;;;;1.67;1.40;;;3.00;98.20;;;;;;5075415;28;20578;-74
2020/12/06 01:17:05;;;;;;;1.70;1.60;;;3.00;98.20;;;;;;5073571;28;20486;-73
2020/12/06 01:19:32;;;;;;;1.60;1.40;;;3.00;98.20;;;;;;5077434;28;20488;-72
2020/12/06 01:21:58;;;;;;;1.70;1.60;;;3.00;98.20;;;;;;5075514;28;21008;-72
2020/12/06 01:24:24;;;;;;;1.63;1.50;;;3.00;98.20;;;;;;5074367;28;20506;-74
2020/12/06 01:26:51;;;;;;;1.60;1.50;;;3.00;98.20;;;;;;5075923;28;20469;-74
2020/12/06 01:29:18;;;;;;;1.67;1.50;;;3.00;98.20;;;;;;5076830;28;20458;-74
2020/12/06 01:31:45;;;;;;;1.63;1.50;;;3.00;98.20;;;;;;5077783;28;20450;-73
2020/12/06 01:34:12;;;;;;;1.70;1.60;;;3.00;98.20;;;;;;5078064;28;20477;-73
2020/12/06 01:36:39;;;;;;;1.63;1.50;;;3.00;98.20;;;;;;5078036;28;20531;-74
2020/12/06 01:39:05;;;;;;;1.60;1.40;;;3.00;98.20;;;;;;5074824;28;20557;-74
2020/12/06 01:41:32;;;;;;;1.63;1.50;;;3.00;98.20;;;;;;5076242;28;20539;-72
2020/12/06 01:44:02;;;;;;;1.63;1.40;;;2.90;98.20;;;;;;5078399;28;20499;-74
2020/12/06 01:46:29;;;;;;;1.60;1.50;;;2.90;98.20;;;;;;5072048;28;20462;-74
2020/12/06 01:48:56;;;;;;;1.70;1.50;;;2.90;98.20;;;;;;5070354;28;20474;-74
2020/12/06 01:51:23;;;;;;;1.67;1.50;;;2.90;98.20;;;;;;5071624;28;20453;-73
2020/12/06 01:53:51;;;;;;;1.70;1.50;;;2.80;98.20;;;;;;5077564;28;20497;-74
2020/12/06 01:56:18;;;;;;;1.63;1.50;;;2.80;98.20;;;;;;5074742;28;20497;-74
2020/12/06 01:58:44;;;;;;;1.67;1.40;;;2.80;98.20;;;;;;5066039;28;20866;-72
2020/12/06 02:01:12;;;;;;;1.70;1.57;;;2.80;98.20;;;;;;5069966;28;20493;-74
2020/12/06 02:03:39;;;;;;;1.60;1.40;;;2.80;98.20;;;;;;5075256;28;20493;-73
2020/12/06 02:06:07;;;;;;;1.60;1.50;;;2.80;98.20;;;;;;5066658;28;20513;-74
2020/12/06 02:08:33;;;;;;;1.67;1.50;;;2.80;98.20;;;;;;5067007;28;20482;-74
2020/12/06 02:11:00;;;;;;;1.70;1.53;;;2.80;98.20;;;;;;5067943;28;20517;-74
2020/12/06 02:13:27;;;;;;;1.60;1.40;;;2.80;98.20;;;;;;5075082;28;20521;-74
2020/12/06 02:15:54;;;;;;;1.67;1.50;;;2.70;98.20;;;;;;5074979;28;20541;-74
2020/12/06 02:18:21;;;;;;;1.67;1.57;;;2.80;98.20;;;;;;5069142;28;20456;-72
2020/12/06 02:20:49;;;;;;;1.70;1.60;;;2.80;98.20;;;;;;5075222;28;20608;-74
2020/12/06 02:23:16;;;;;;;2.70;2.50;;;2.80;98.20;;;;;;5070832;28;20488;-74
2020/12/06 02:25:42;;;;;;;1.67;1.53;;;2.80;98.20;;;;;;5071747;28;20474;-73
2020/12/06 02:28:09;;;;;;;1.70;1.50;;;2.70;98.20;;;;;;5073274;28;20458;-73
2020/12/06 02:30:36;;;;;;;1.63;1.40;;;2.80;98.20;;;;;;5072910;28;20490;-74
2020/12/06 02:33:04;;;;;;;1.70;1.50;;;2.80;98.20;;;;;;5070820;28;20558;-74
2020/12/06 02:35:30;;;;;;;1.80;1.70;;;2.80;98.20;;;;;;5071933;28;21071;-74
2020/12/06 02:37:58;;;;;;;1.60;1.40;;;2.80;98.20;;;;;;5073400;28;20493;-72
2020/12/06 02:40:24;;;;;;;1.67;1.47;;;2.80;98.20;;;;;;5069395;28;20470;-73
2020/12/06 02:42:51;;;;;;;1.70;1.53;;;2.80;98.20;;;;;;5071932;28;20565;-74
2020/12/06 02:45:17;;;;;;;1.70;1.50;;;2.80;98.20;;;;;;5073401;28;20517;-73
2020/12/06 02:47:43;;;;;;;1.67;1.53;;;2.80;98.20;;;;;;5067836;28;20923;-73
2020/12/06 02:50:10;;;;;;;1.63;1.50;;;2.80;98.20;;;;;;5069232;28;20505;-74
2020/12/06 02:52:36;;;;;;;1.70;1.57;;;2.80;98.20;;;;;;5074774;28;20800;-74
2020/12/06 02:55:04;;;;;;;1.60;1.43;;;2.80;98.20;;;;;;5066753;28;20486;-74
2020/12/06 02:57:30;;;;;;;1.70;1.50;;;2.80;98.20;;;;;;5070015;28;20486;-74
2020/12/06 02:59:57;;;;;;;1.70;1.57;;;2.80;98.20;;;;;;5073748;28;20486;-72
2020/12/06 03:02:23;;;;;;;1.67;1.50;;;2.80;98.20;;;;;;5073712;28;21179;-74
2020/12/06 03:04:49;;;;;;;1.70;1.60;;;2.90;98.20;;;;;;5066816;28;20528;-73
2020/12/06 03:07:16;;;;;;;1.70;1.60;;;2.90;98.20;;;;;;5070893;28;20480;-74
2020/12/06 03:09:42;;;;;;;1.70;1.60;;;2.90;98.20;;;;;;5073803;28;20481;-74
2020/12/06 03:12:10;;;;;;;1.70;1.60;;;3.00;98.20;;;;;;5072276;28;20482;-74
2020/12/06 03:14:36;;;;;;;1.70;1.60;;;3.00;98.20;;;;;;5066887;28;20504;-74
2020/12/06 03:17:02;;;;;;;1.70;1.60;;;3.00;98.20;;;;;;5068163;28;20519;-74
2020/12/06 03:19:29;;;;;;;1.60;1.40;;;3.00;98.20;;;;;;5070307;28;20984;-74
2020/12/06 03:21:55;;;;;;;1.67;1.57;;;3.00;98.20;;;;;;5069286;28;21133;-74
2020/12/06 03:24:22;;;;;;;1.70;1.50;;;3.00;98.20;;;;;;5066255;28;20477;-73
2020/12/06 03:26:48;;;;;;;1.70;1.60;;;3.00;98.20;;;;;;5068002;28;20497;-73
2020/12/06 03:29:15;;;;;;;1.70;1.50;;;3.00;98.20;;;;;;5070826;28;20474;-73
2020/12/06 03:31:42;;;;;;;1.87;1.77;;;3.00;98.20;;;;;;5071329;28;20454;-73
2020/12/06 03:34:08;;;;;;;1.60;1.40;;;3.00;98.20;;;;;;5070394;28;20516;-74
2020/12/06 03:36:35;;;;;;;1.60;1.40;;;3.00;98.20;;;;;;5067060;28;20499;-75
2020/12/06 03:39:01;;;;;;;1.60;1.50;;;3.00;98.20;;;;;;5068963;28;20479;-74
2020/12/06 03:41:27;;;;;;;1.67;1.40;;;3.00;98.20;;;;;;5068486;28;20462;-74
2020/12/06 03:43:54;;;;;;;1.60;1.40;;;3.00;98.20;;;;;;5071280;28;21128;-75
2020/12/06 03:46:21;;;;;;;1.63;1.40;;;3.00;98.20;;;;;;5071695;28;20493;-74
2020/12/06 03:48:47;;;;;;;3.60;3.30;;;3.00;98.20;;;;;;5063999;28;20506;-74
2020/12/06 03:51:14;;;;;;;1.80;1.70;;;3.00;98.20;;;;;;5071201;28;20537;-74
2020/12/06 03:53:40;;;;;;;1.63;1.47;;;3.00;98.20;;;;;;5073734;28;20489;-72
2020/12/06 03:56:07;;;;;;;1.70;1.40;;;3.00;98.20;;;;;;5066358;28;20462;-74
2020/12/06 03:58:33;;;;;;;1.60;1.40;;;3.00;98.20;;;;;;5070439;28;20489;-74
2020/12/06 04:01:00;;;;;;;1.70;1.60;;;3.10;98.20;;;;;;5074025;28;20478;-74
2020/12/06 04:03:27;;;;;;;1.60;1.40;;;3.00;98.20;;;;;;5074953;28;20496;-74
2020/12/06 04:05:53;;;;;;;1.60;1.40;;;3.00;98.20;;;;;;5066808;28;20490;-74
2020/12/06 04:08:20;;;;;;;1.63;1.50;;;3.00;98.20;;;;;;5075280;28;20485;-74
2020/12/06 04:10:46;;;;;;;1.63;1.50;;;3.00;98.20;;;;;;5075245;28;20457;-75
2020/12/06 04:13:12;;;;;;;1.60;1.50;;;3.00;98.20;;;;;;5071400;28;20484;-73
2020/12/06 04:15:39;;;;;;;1.60;1.50;;;3.00;98.20;;;;;;5068828;28;20599;-73
2020/12/06 04:18:05;;;;;;;1.70;1.60;;;3.00;98.20;;;;;;5070869;28;20490;-74
2020/12/06 04:20:33;;;;;;;1.80;1.70;;;3.00;98.20;;;;;;5071332;28;21178;-74
2020/12/06 04:22:59;;;;;;;1.80;1.70;;;3.00;98.20;;;;;;5060628;28;20562;-74
2020/12/06 04:25:25;;;;;;;1.60;1.40;;;3.00;98.20;;;;;;5064454;28;20482;-74
2020/12/06 04:27:52;;;;;;;1.60;1.40;;;3.00;98.20;;;;;;5062573;28;20478;-74
2020/12/06 04:30:18;;;;;;;1.60;1.30;;;3.00;98.20;;;;;;5064112;28;20516;-74
2020/12/06 04:32:45;;;;;;;1.70;1.60;;;3.00;98.20;;;;;;5063443;28;20486;-74
2020/12/06 04:35:11;;;;;;;1.60;1.50;;;3.00;98.20;;;;;;5064603;28;20953;-73
2020/12/06 04:37:38;;;;;;;1.60;1.40;;;2.90;98.20;;;;;;5071450;28;20485;-74
2020/12/06 04:40:05;;;;;;;1.70;1.60;;;2.90;98.20;;;;;;5065627;28;20494;-74
2020/12/06 04:42:32;;;;;;;1.63;1.50;;;2.90;98.20;;;;;;5067796;28;20487;-74
2020/12/06 04:44:59;;;;;;;1.60;1.40;;;2.90;98.20;;;;;;5072350;28;20544;-74
2020/12/06 04:47:46;;;;;;;1.60;1.40;;;2.90;98.20;;;;;;5069048;28;20454;-74
2020/12/06 04:50:25;;;;;;;1.70;1.50;;;2.90;98.20;;;;;;5061097;28;20544;-74
2020/12/06 04:52:57;;;;;;;1.70;1.53;;;2.90;98.20;;;;;;5067790;28;20520;-74
2020/12/06 04:55:27;;;;;;;1.70;1.60;;;2.90;98.20;;;;;;5074077;28;20554;-74
2020/12/06 04:57:55;;;;;;;1.60;1.40;;;2.90;98.20;;;;;;5068336;28;20484;-74
2020/12/06 05:00:31;;;;;;;1.70;1.53;;;2.90;98.20;;;;;;5069571;28;20449;-74
2020/12/06 05:02:59;;;;;;;1.63;1.50;;;2.90;98.20;;;;;;5071647;28;20546;-75
2020/12/06 05:05:34;;;;;;;1.60;1.50;;;2.90;98.20;;;;;;5068612;28;20486;-74
2020/12/06 05:08:07;;;;;;;1.67;1.50;;;2.90;98.20;;;;;;5070098;28;20448;-74
2020/12/06 05:10:39;;;;;;;1.60;1.40;;;2.90;98.20;;;;;;5071698;28;20497;-72
2020/12/06 05:13:05;;;;;;;1.70;1.60;;;2.90;98.20;;;;;;5078867;28;20518;-74
2020/12/06 05:15:32;;;;;;;1.63;1.50;;;2.90;98.20;;;;;;5075532;28;21029;-72
2020/12/06 05:17:59;;;;;;;1.70;1.40;;;2.90;98.20;;;;;;5065066;28;20484;-74
2020/12/06 05:20:26;;;;;;;1.70;1.57;;;3.00;98.20;;;;;;5070139;28;21117;-74
2020/12/06 05:22:53;;;;;;;1.60;1.40;;;3.00;98.20;;;;;;5079528;28;20925;-73
2020/12/06 05:25:21;;;;;;;1.60;1.40;;;3.00;98.20;;;;;;5072695;28;20482;-74
2020/12/06 05:27:48;;;;;;;1.63;1.40;;;3.00;98.20;;;;;;5069359;28;20458;-74
2020/12/06 05:30:15;;;;;;;1.60;1.40;;;3.00;98.20;;;;;;5063062;28;20502;-73
2020/12/06 05:32:41;;;;;;;1.60;1.40;;;3.00;98.20;;;;;;5064632;28;20469;-75
2020/12/06 05:35:09;;;;;;;1.60;1.40;;;3.00;98.20;;;;;;5075726;28;20480;-74
2020/12/06 05:37:36;;;;;;;1.63;1.40;;;3.00;98.20;;;;;;5077411;28;20449;-75
2020/12/06 05:40:05;;;;;;;1.63;1.50;;;3.00;98.20;;;;;;5076632;28;20888;-73
2020/12/06 05:42:33;;;;;;;1.67;1.50;;;3.00;98.20;;;;;;5070163;28;21000;-75
2020/12/06 05:45:00;;;;;;;1.60;1.43;;;3.00;98.20;;;;;;5072087;28;20493;-75
2020/12/06 05:47:27;;;;;;;2.60;2.40;;;3.00;98.20;;;;;;5072633;28;20453;-73
2020/12/06 05:49:55;;;;;;;1.70;1.60;;;3.10;98.20;;;;;;5075441;28;20454;-75
2020/12/06 05:52:22;;;;;;;1.60;1.40;;;3.10;98.20;;;;;;5070667;28;20883;-73
2020/12/06 05:54:49;;;;;;;1.73;1.63;;;3.10;98.20;;;;;;5071228;28;20507;-74
2020/12/06 05:57:16;;;;;;;1.70;1.47;;;3.10;98.20;;;;;;5070419;28;20505;-75
2020/12/06 05:59:44;;;;;;;1.60;1.40;;;3.10;98.20;;;;;;5072432;28;20453;-75
2020/12/06 06:02:12;;;;;;;1.60;1.43;;;3.10;98.20;;;;;;5071390;28;20521;-73
2020/12/06 06:04:39;;;;;;;1.60;1.33;;;3.10;98.20;;;;;;5077685;28;20512;-74
2020/12/06 06:07:09;;;;;;;1.60;1.50;;;3.10;98.20;;;;;;5078509;28;20476;-75
2020/12/06 06:09:42;;;;;;;1.60;1.40;;;3.10;98.20;;;;;;5072020;28;21062;-75
2020/12/06 06:12:28;;;;;;;1.60;1.30;;;3.10;98.20;;;;;;5074585;28;20455;-75
2020/12/06 06:14:56;;;;;;;1.60;1.43;;;3.20;98.20;;;;;;5077746;28;21125;-73
2020/12/06 06:17:24;;;;;;;1.60;1.40;;;3.20;98.20;;;;;;5068505;28;20455;-72
2020/12/06 06:19:51;;;;;;;1.60;1.40;;;3.20;98.20;;;;;;5077792;28;20823;-75
2020/12/06 06:22:21;;;;;;;1.60;1.40;;;3.20;98.20;;;;;;5075260;28;20485;-74
2020/12/06 06:24:49;;;;;;;1.70;1.60;;;3.20;98.20;;;;;;5074313;28;20520;-73
2020/12/06 06:27:15;;;;;;;1.60;1.50;;;3.20;98.20;;;;;;5079182;28;20464;-74
2020/12/06 06:29:43;;;;;;;1.60;1.40;;;3.20;98.20;;;;;;5081903;28;20453;-75
2020/12/06 06:32:11;;;;;;;1.60;1.40;;;3.20;98.20;;;;;;5079168;28;20535;-72
2020/12/06 06:34:39;;;;;;;1.60;1.40;;;3.20;98.20;;;;;;5076422;28;20489;-74
2020/12/06 06:37:14;;;;;;;1.60;1.40;;;3.20;98.20;;;;;;5077282;28;20473;-73
2020/12/06 06:39:41;;;;;;;1.60;1.40;;;3.20;98.20;;;;;;5074507;28;20481;-74
2020/12/06 06:42:10;;;;;;;1.60;1.37;;;3.30;98.20;;;;;;5072745;28;20517;-73
2020/12/06 06:44:38;;;;;;;1.60;1.40;;;3.30;98.20;;;;;;5082169;28;20482;-73
2020/12/06 06:47:06;;;;;;;1.60;1.40;;;3.30;98.20;;;;;;5081999;28;20454;-73
2020/12/06 06:49:49;;;;;;;1.70;1.50;;;3.30;98.20;;;;;;5078509;28;20466;-75
2020/12/06 06:52:17;;;;;;;1.70;1.60;;;3.30;98.20;;;;;;5077682;28;20458;-75
2020/12/06 06:54:47;;;;;;;1.60;1.40;;;3.30;98.20;;;;;;5073655;28;21007;-74
2020/12/06 06:57:15;;;;;;;1.60;1.40;;;3.30;98.20;;;;;;5081177;28;20458;-74
2020/12/06 06:59:45;;;;;;;1.60;1.50;;;3.30;98.20;;;;;;5076093;28;20475;-73
2020/12/06 07:02:25;;;;;;;1.60;1.40;;;3.30;98.20;;;;;;5079466;28;20547;-73
2020/12/06 07:04:53;;;;;;;1.60;1.40;;;3.30;98.20;;;;;;5076584;28;20480;-72
2020/12/06 07:07:47;;;;;;;1.60;1.40;;;3.30;98.20;;;;;;5077171;28;20476;-73
2020/12/06 07:10:15;;;;;;;1.60;1.40;;;3.30;98.20;;;;;;5080226;28;20462;-74
2020/12/06 07:12:47;;;;;;;1.60;1.40;;;3.30;98.20;;;;;;5082356;28;20454;-73
2020/12/06 07:15:15;;;;;;;1.60;1.40;;;3.30;98.20;;;;;;5084369;28;20490;-73
2020/12/06 07:17:42;;;;;;;1.60;1.40;;;3.30;98.20;;;;;;5080287;28;20473;-73
2020/12/06 07:20:12;;;;;;;1.67;1.50;;;3.30;98.20;;;;;;5079558;28;20450;-72
2020/12/06 07:22:39;;;;;;;1.73;1.63;;;3.30;98.20;;;;;;5086171;28;20485;-71
2020/12/06 07:25:07;;;;;;;1.73;1.63;;;3.30;98.20;;;;;;5081019;28;20479;-72
2020/12/06 07:27:33;;;;;;;1.60;1.40;;;3.30;98.20;;;;;;5083991;28;20470;-73
2020/12/06 07:30:00;;;;;;;1.60;1.40;;;3.30;98.20;;;;;;5084460;28;20454;-74
2020/12/06 07:32:26;;;;;;;1.63;1.50;;;3.30;98.20;;;;;;5082436;28;20469;-73
2020/12/06 07:34:53;;;;;;;1.70;1.50;;;3.30;98.20;;;;;;5082188;28;20558;-73
2020/12/06 07:37:21;;;;;;;1.60;1.40;;;3.30;98.20;;;;;;5083711;28;20488;-73
2020/12/06 07:39:49;;;;;;;1.70;1.50;;;3.30;98.20;;;;;;5085688;28;20465;-73
2020/12/06 07:42:20;;;;;;;1.70;1.53;;;3.30;98.20;;;;;;5087806;28;20481;-74
2020/12/06 07:44:48;;;;;;;1.60;1.40;;;3.30;98.20;;;;;;5078021;28;20486;-73
2020/12/06 07:47:15;;;;;;;1.60;1.40;;;3.40;98.20;;;;;;5078979;28;20523;-72
2020/12/06 07:49:46;;;;;;;1.60;1.40;;;3.40;98.20;;;;;;5078834;28;20484;-74
2020/12/06 07:52:17;;;;;;;1.60;1.50;;;3.40;98.20;;;;;;5073186;28;20633;-73
2020/12/06 07:54:58;;;;;;;1.60;1.40;;;3.40;98.20;;;;;;5079133;28;20504;-75
2020/12/06 07:57:30;;;;;;;1.60;1.50;;;3.40;98.20;;;;;;5079290;28;20450;-73
2020/12/06 07:59:59;;;;;;;1.60;1.40;;;3.40;98.20;;;;;;5084982;28;20447;-73
2020/12/06 08:02:28;;;;;;;1.60;1.40;;;3.50;98.20;;;;;;5076694;28;20539;-73
2020/12/06 08:04:56;;;;;;;1.60;1.50;;;3.50;98.20;;;;;;5072890;28;20540;-74
2020/12/06 08:07:26;;;;;;;1.60;1.40;;;3.50;98.20;;;;;;5078611;28;20470;-74
2020/12/06 08:09:55;;;;;;;1.60;1.43;;;3.50;98.20;;;;;;5074600;28;20461;-71
2020/12/06 08:12:25;;;;;;;1.60;1.40;;;3.60;98.20;;;;;;5076408;28;20458;-74
2020/12/06 08:15:00;;;;;;;1.60;1.30;;;3.60;98.20;;;;;;5076417;28;20845;-72
2020/12/06 08:17:26;;;;;;;1.60;1.47;;;3.60;98.20;;;;;;5068961;28;20463;-72
2020/12/06 08:19:53;;;;;;;1.70;1.50;;;3.70;98.20;;;;;;5072615;28;20454;-74
2020/12/06 08:22:19;;;;;;;1.60;1.40;;;3.70;98.20;;;;;;5076667;28;20497;-74
2020/12/06 08:24:46;;;;;;;1.63;1.40;;;3.70;98.20;;;;;;5069592;28;20481;-74
2020/12/06 08:27:23;;;;;;;1.60;1.40;;;3.80;98.20;;;;;;5077895;28;20498;-74
2020/12/06 08:29:54;;;;;;;1.63;1.40;;;3.80;98.20;;;;;;5083646;28;20457;-73
2020/12/06 08:32:21;;;;;;;1.70;1.50;;;3.80;98.20;;;;;;5074799;28;20484;-74
2020/12/06 08:34:55;;;;;;;1.67;1.40;;;3.90;98.20;;;;;;5077438;28;20494;-74
2020/12/06 08:37:21;;;;;;;1.60;1.40;;;3.90;98.20;;;;;;5077127;28;20447;-74
2020/12/06 08:39:49;;;;;;;1.60;1.33;;;3.90;98.20;;;;;;5081544;28;20461;-74
2020/12/06 08:42:17;;;;;;;1.63;1.40;;;4.00;98.20;;;;;;5084518;28;20470;-74
2020/12/06 08:45:06;;;;;;;1.60;1.50;;;4.10;98.20;;;;;;5075492;28;20710;-74
2020/12/06 08:47:43;;;;;;;1.60;1.30;;;4.10;98.20;;;;;;5078102;28;20462;-72
2020/12/06 08:50:12;;;;;;;1.70;1.53;;;4.10;98.20;;;;;;5073934;28;20484;-73
2020/12/06 08:52:39;;;;;;;1.60;1.50;;;4.20;98.20;;;;;;5079429;28;21133;-74
2020/12/06 08:55:29;;;;;;;1.60;1.37;;;4.20;98.20;;;;;;5077809;28;20506;-74
2020/12/06 08:57:57;;;;;;;1.60;1.37;;;4.30;98.20;;;;;;5077822;28;20453;-73
2020/12/06 09:00:24;;;;;;;1.60;1.40;;;4.30;98.20;;;;;;5077745;28;20604;-74
2020/12/06 09:02:51;;;;;;;1.60;1.40;;;4.30;98.20;;;;;;5075619;28;20486;-72
2020/12/06 09:05:17;;;;;;;1.70;1.50;;;4.30;98.20;;;;;;5074421;28;20482;-72
2020/12/06 09:07:44;;;;;;;1.60;1.40;;;4.30;98.20;;;;;;5075101;28;20462;-71
2020/12/06 09:10:10;;;;;;;1.60;1.40;;;4.40;98.20;;;;;;5078985;28;20454;-73
2020/12/06 09:12:37;;;;;;;1.60;1.40;;;4.40;98.20;;;;;;5082128;28;20458;-72
2020/12/06 09:15:06;;;;;;;1.70;1.50;;;4.50;98.20;;;;;;5076665;28;20489;-72
2020/12/06 09:17:34;;;;;;;1.60;1.30;;;4.50;98.20;;;;;;5070762;28;20458;-74
2020/12/06 09:20:01;;;;;;;1.60;1.30;;;4.60;98.20;;;;;;5080610;28;20484;-73
2020/12/06 09:22:28;;;;;;;1.60;1.30;;;4.60;98.20;;;;;;5083214;28;20512;-73
2020/12/06 09:24:54;;;;;;;1.60;1.30;;;4.70;98.20;;;;;;5076942;28;20481;-74
2020/12/06 09:27:21;;;;;;;1.60;1.30;;;4.80;98.20;;;;;;5080082;28;20457;-75
2020/12/06 09:29:47;;;;;;;1.60;1.40;;;4.80;98.20;;;;;;5078812;28;20500;-72
2020/12/06 09:32:14;;;;;;;1.67;1.43;;;4.90;98.20;;;;;;5078811;28;20480;-72
2020/12/06 09:34:41;;;;;;;1.60;1.40;;;4.90;98.20;;;;;;5078173;28;20553;-74
2020/12/06 09:37:08;;;;;;;1.60;1.37;;;5.00;98.20;;;;;;5083023;28;20465;-74
2020/12/06 09:39:34;;;;;;;1.60;1.40;;;5.00;98.20;;;;;;5078511;28;20474;-73
2020/12/06 09:42:01;;;;;;;1.60;1.30;;;5.10;98.20;;;;;;5070586;28;20467;-71
2020/12/06 09:44:27;;;;;;;1.60;1.30;;;5.10;98.20;;;;;;5080707;28;20539;-72
2020/12/06 09:46:54;;;;;;;1.70;1.50;;;5.20;98.20;;;;;;5080541;28;20458;-72
2020/12/06 09:49:20;;;;;;;1.67;1.40;;;5.30;98.20;;;;;;5081325;28;20476;-72
2020/12/06 09:51:48;;;;;;;1.60;1.30;;;5.30;98.20;;;;;;5083814;28;20466;-73
2020/12/06 09:54:14;;;;;;;1.60;1.30;;;5.40;98.20;;;;;;5081955;28;20506;-74
2020/12/06 09:56:41;;;;;;;1.60;1.30;;;5.40;98.20;;;;;;5084230;28;20515;-72
2020/12/06 09:59:07;;;;;;;1.60;1.30;;;5.50;98.20;;;;;;5080949;28;20465;-72
2020/12/06 10:01:34;;;;;;;1.67;1.50;;;5.50;98.20;;;;;;5086474;28;20484;-72
2020/12/06 10:04:00;;;;;;;1.60;1.30;;;5.60;98.20;;;;;;5085110;28;20485;-71
2020/12/06 10:06:27;;;;;;;1.60;1.30;;;5.70;98.20;;;;;;5086550;28;20449;-71
2020/12/06 10:08:55;;;;;;;1.60;1.30;;;5.70;98.20;;;;;;5084862;28;20447;-71
2020/12/06 10:11:23;;;;;;;1.60;1.30;;;5.80;98.20;;;;;;5083031;28;20454;-74
2020/12/06 10:13:49;;;;;;;1.60;1.30;;;5.80;98.20;;;;;;5082348;28;20458;-74
2020/12/06 10:16:16;;;;;;;1.60;1.30;;;5.90;98.20;;;;;;5076124;28;20500;-74
2020/12/06 10:18:43;;;;;;;1.60;1.30;;;5.90;98.20;;;;;;5072800;28;21008;-73
2020/12/06 10:21:11;;;;;;;1.60;1.30;;;6.00;98.20;;;;;;5075620;28;20469;-74
2020/12/06 10:54:31;;;;;;;1.60;1.27;;;6.20;98.20;;;;;;5099801;28;20444;-74
2020/12/06 10:56:59;;;;;;;1.60;1.30;;;6.20;98.20;;;;;;5096604;28;20452;-74
2020/12/06 10:59:26;;;;;;;1.60;1.30;;;6.20;98.20;;;;;;5089467;28;20492;-74
2020/12/06 11:01:53;;;;;;;1.60;1.30;;;6.20;98.20;;;;;;5095239;28;20477;-73
2020/12/06 11:04:19;;;;;;;1.60;1.30;;;6.20;98.20;;;;;;5096493;28;20549;-74
2020/12/06 11:06:46;;;;;;;1.60;1.30;;;6.20;98.20;;;;;;5097210;28;21254;-73
2020/12/06 11:09:12;;;;;;;1.60;1.30;;;6.20;98.20;;;;;;5090334;28;20469;-73
2020/12/06 11:11:39;;;;;;;1.60;1.30;;;6.20;98.20;;;;;;5092826;28;20453;-73
2020/12/06 11:14:06;;;;;;;1.60;1.20;;;6.30;98.20;;;;;;5098223;28;20481;-74
2020/12/06 11:16:32;;;;;;;1.60;1.30;;;6.30;98.20;;;;;;5085246;28;20538;-73
2020/12/06 11:18:59;;;;;;;1.60;1.20;;;6.30;98.20;;;;;;5098783;28;20492;-73
2020/12/06 11:21:25;;;;;;;1.60;1.30;;;6.30;98.20;;;;;;5095764;28;20498;-73
2020/12/06 11:23:54;;;;;;;2.90;2.70;;;6.30;98.20;;;;;;5095374;28;20480;-73
2020/12/06 11:26:21;;;;;;;1.60;1.43;;;6.20;98.20;;;;;;5090813;28;20476;-73
2020/12/06 11:28:48;;;;;;;1.60;1.30;;;6.20;98.20;;;;;;5094481;28;20457;-73
2020/12/06 11:31:15;;;;;;;1.60;1.20;;;6.20;98.20;;;;;;5094629;28;20558;-73
2020/12/06 11:33:42;;;;;;;1.60;1.30;;;6.20;98.20;;;;;;5093544;28;21337;-73
2020/12/06 11:36:10;;;;;;;1.60;1.30;;;6.30;98.20;;;;;;5091036;28;20528;-73
2020/12/06 11:38:36;;;;;;;1.60;1.43;;;6.30;98.20;;;;;;5093159;28;20511;-74
2020/12/06 11:41:04;;;;;;;1.60;1.30;;;6.30;98.20;;;;;;5094879;28;20953;-73
2020/12/06 11:43:30;;;;;;;1.60;1.20;;;6.30;98.20;;;;;;5095762;28;20477;-73
2020/12/06 11:45:57;;;;;;;1.60;1.33;;;6.30;98.20;;;;;;5093932;28;20457;-73
2020/12/06 11:48:24;;;;;;;1.60;1.30;;;6.30;98.20;;;;;;5099145;28;20469;-74
2020/12/06 11:50:51;;;;;;;1.60;1.30;;;6.20;98.20;;;;;;5098912;28;20449;-73
2020/12/06 11:53:18;;;;;;;1.60;1.33;;;6.20;98.20;;;;;;5089254;28;20458;-73
2020/12/06 11:55:45;;;;;;;1.60;1.30;;;6.10;98.20;;;;;;5091946;28;20489;-73
2020/12/06 11:58:11;;;;;;;1.60;1.50;;;6.10;98.20;;;;;;5096552;28;20453;-74
2020/12/06 12:00:37;;;;;;;1.60;1.30;;;6.10;98.20;;;;;;5093964;28;21209;-74
2020/12/06 12:03:05;;;;;;;1.60;1.30;;;6.10;98.20;;;;;;5088896;28;20496;-73
2020/12/06 12:05:31;;;;;;;1.60;1.37;;;6.10;98.20;;;;;;5085901;28;20485;-74
2020/12/06 12:07:58;;;;;;;1.60;1.30;;;6.10;98.20;;;;;;5094975;28;20461;-73
2020/12/06 12:10:24;;;;;;;1.60;1.33;;;6.10;98.20;;;;;;5092171;28;20524;-73
2020/12/06 12:12:54;;;;;;;1.60;1.33;;;6.10;98.20;;;;;;5088741;28;20484;-73
2020/12/06 12:15:20;;;;;;;1.60;1.30;;;6.10;98.20;;;;;;5094963;28;20585;-74
2020/12/06 12:17:47;;;;;;;1.60;1.30;;;6.10;98.20;;;;;;5091701;28;20453;-73
2020/12/06 12:20:14;;;;;;;1.60;1.30;;;6.10;98.20;;;;;;5099770;28;20474;-73
2020/12/06 12:22:41;;;;;;;1.60;1.30;;;6.10;98.20;;;;;;5095456;28;20480;-73
2020/12/06 12:25:07;;;;;;;1.60;1.40;;;6.10;98.20;;;;;;5095993;28;20485;-73
2020/12/06 12:27:34;;;;;;;1.60;1.30;;;6.10;98.20;;;;;;5096682;28;20461;-73
2020/12/06 12:30:00;;;;;;;1.60;1.30;;;6.10;98.20;;;;;;5096427;28;20487;-73
2020/12/06 12:32:27;;;;;;;1.60;1.30;;;6.10;98.20;;;;;;5105341;28;20453;-73
2020/12/06 12:34:56;;;;;;;1.60;1.30;;;6.00;98.20;;;;;;5104664;28;20469;-73
2020/12/06 12:37:24;;;;;;;1.60;1.30;;;6.00;98.20;;;;;;5098662;28;20468;-73
2020/12/06 12:39:51;;;;;;;1.53;1.20;;;6.00;98.20;;;;;;5097134;28;20523;-73
2020/12/06 12:42:18;;;;;;;1.60;1.20;;;5.90;98.20;;;;;;5095694;28;20453;-73
2020/12/06 12:44:45;;;;;;;1.60;1.30;;;5.90;98.20;;;;;;5094151;28;20718;-73
2020/12/06 12:47:11;;;;;;;1.60;1.30;;;5.90;98.20;;;;;;5096447;28;20648;-73
2020/12/06 12:49:38;;;;;;;1.90;1.70;;;5.90;98.20;;;;;;5102538;28;20514;-74
2020/12/06 12:52:04;;;;;;;1.60;1.30;;;5.90;98.20;;;;;;5106023;28;20472;-73
2020/12/06 12:54:32;;;;;;;1.60;1.40;;;5.90;98.20;;;;;;5093928;28;20563;-73
2020/12/06 12:56:59;;;;;;;1.60;1.30;;;5.90;98.20;;;;;;5097809;28;20461;-73
2020/12/06 12:59:26;;;;;;;1.60;1.30;;;5.90;98.20;;;;;;5104076;28;20452;-73
2020/12/06 13:01:54;;;;;;;1.60;1.37;;;5.90;98.20;;;;;;5097607;28;20783;-73
2020/12/06 13:04:21;;;;;;;1.60;1.30;;;5.90;98.20;;;;;;5094436;28;20507;-74
2020/12/06 13:06:49;;;;;;;1.60;1.30;;;5.90;98.20;;;;;;5097138;28;20516;-73
2020/12/06 13:09:16;;;;;;;1.60;1.33;;;5.80;98.20;;;;;;5097660;28;20515;-73
2020/12/06 13:11:43;;;;;;;1.60;1.40;;;5.80;98.20;;;;;;5095384;28;20461;-73
2020/12/06 13:14:10;;;;;;;1.60;1.30;;;5.80;98.20;;;;;;5098013;28;20534;-73
2020/12/06 13:16:36;;;;;;;1.60;1.30;;;5.70;98.20;;;;;;5095866;28;20462;-73
2020/12/06 13:19:03;;;;;;;1.60;1.40;;;5.70;98.20;;;;;;5099500;28;20460;-73
2020/12/06 13:21:29;;;;;;;1.60;1.30;;;5.60;98.20;;;;;;5106265;28;20452;-73
2020/12/06 13:23:56;;;;;;;1.60;1.30;;;5.60;98.20;;;;;;5107000;28;20500;-73
2020/12/06 13:26:22;;;;;;;1.60;1.40;;;5.60;98.20;;;;;;5101915;28;20457;-73
2020/12/06 13:28:50;;;;;;;1.60;1.30;;;5.60;98.20;;;;;;5096218;28;20469;-74
2020/12/06 13:31:18;;;;;;;1.60;1.30;;;5.60;98.20;;;;;;5100944;28;20461;-73